Current Weather (METAR) For Innsbruck - Kranebitten Airport

All times on the weather descriptions are local

Observed at 04:50 - (11 mins ago)


16°C


Clouds:
Wind: 270° at 02 knots
Visibility: Greater than 10km
QNH: 1025
Dew Point: 14°C
Runway in Use: Likely Runway 26

Sunrise Today: 06:28
Sunset Today: 20:02

Forecast Weather (TAF) For Innsbruck - Kranebitten Airport

Issued at 02:00 - (1 day 20 hrs ago)


Runway in Use: Unable to determine, wind is clam

Forecast valid until 02:00 on Monday

METAR/TAF RAW METAR / TAF

LOWI 290250Z AUTO 27002KT 9999 NCD 16/14 Q1025

Weather Widget

Put weather from any of our airports on your website with our weather widget.

Find Another Search

Airport Search


Please Wait Please Wait - Loading
Close
Close

Login

Username:

Password:

Remember Me:

Remember me on this computer

Forgotten your password? Get a reset password sent to your registered e-mail address

Close

User Private Message

Subject:

Message: